AFL343 URWW-URWA
Flight info
| Callsign | AFL343 |
|---|---|
| Flight time | 0h 43m |
| Altitude | 29000 |
| Route | NOKLI2E NOKLI DCT OMIRA OMIRA5L |
| Aircraft | A20N/M-SDE2E3FGHIRWXY/LB1 |
Departure
| Time | 2026-05-07 19:05 |
|---|---|
| Airport | Volgograd International Airport (URWW) |
Arrival
| Time | 2026-05-07 19:49 |
|---|---|
| Airport | Astrakhan Narimanovo Boris M. Kustodiev International Airport (URWA) |
| Time | Latitude | Longitude | Altitude | Speed | Heading |
|---|---|---|---|---|---|
| 2026-05-07 18:45 | 48.78942 | 44.34978 | 469 ft | 0 kts | 339° |
| 2026-05-07 18:58 | 48.78941 | 44.34978 | 469 ft | 1 kts | 339° |
| 2026-05-07 18:58 | 48.78928 | 44.34986 | 469 ft | 2 kts | 338° |
| 2026-05-07 18:58 | 48.78914 | 44.34994 | 468 ft | 2 kts | 339° |
| 2026-05-07 18:58 | 48.78900 | 44.35002 | 469 ft | 2 kts | 338° |
| 2026-05-07 18:59 | 48.78886 | 44.35010 | 468 ft | 2 kts | 345° |
| 2026-05-07 18:59 | 48.78871 | 44.35010 | 468 ft | 2 kts | 18° |
| 2026-05-07 18:59 | 48.78858 | 44.34998 | 468 ft | 2 kts | 47° |
| 2026-05-07 18:59 | 48.78852 | 44.34986 | 467 ft | 0 kts | 65° |
| 2026-05-07 19:00 | 48.78849 | 44.34975 | 467 ft | 0 kts | 69° |
| 2026-05-07 19:01 | 48.78849 | 44.34974 | 467 ft | 0 kts | 69° |
| 2026-05-07 19:02 | 48.78851 | 44.34980 | 467 ft | 1 kts | 69° |
| 2026-05-07 19:02 | 48.78854 | 44.34994 | 468 ft | 3 kts | 69° |
| 2026-05-07 19:02 | 48.78869 | 44.35060 | 469 ft | 9 kts | 81° |
| 2026-05-07 19:03 | 48.78816 | 44.35147 | 469 ft | 13 kts | 160° |
| 2026-05-07 19:03 | 48.78740 | 44.35184 | 468 ft | 7 kts | 162° |
| 2026-05-07 19:03 | 48.78702 | 44.35202 | 468 ft | 0 kts | 162° |
| 2026-05-07 19:03 | 48.78697 | 44.35204 | 468 ft | 1 kts | 162° |
| 2026-05-07 19:04 | 48.78674 | 44.35216 | 468 ft | 6 kts | 161° |
| 2026-05-07 19:04 | 48.78601 | 44.35245 | 468 ft | 14 kts | 180° |
| 2026-05-07 19:04 | 48.78497 | 44.35042 | 464 ft | 51 kts | 243° |
| 2026-05-07 19:04 | 48.78233 | 44.34218 | 451 ft | 119 kts | 244° |
| 2026-05-07 19:05 | 48.77785 | 44.32811 | 460 ft | 169 kts | 243° |
| 2026-05-07 19:05 | 48.77265 | 44.31182 | 948 ft | 176 kts | 244° |
| 2026-05-07 19:05 | 48.76732 | 44.29542 | 1686 ft | 175 kts | 246° |
| 2026-05-07 19:05 | 48.76203 | 44.27899 | 2328 ft | 178 kts | 247° |
| 2026-05-07 19:06 | 48.75645 | 44.26138 | 2793 ft | 193 kts | 248° |
| 2026-05-07 19:06 | 48.74215 | 44.22347 | 3609 ft | 235 kts | 219° |
| 2026-05-07 19:06 | 48.72662 | 44.21444 | 4067 ft | 253 kts | 179° |
| 2026-05-07 19:07 | 48.70951 | 44.22177 | 4582 ft | 265 kts | 143° |
| 2026-05-07 19:07 | 48.69524 | 44.23976 | 5203 ft | 275 kts | 134° |
| 2026-05-07 19:07 | 48.68118 | 44.25990 | 6044 ft | 278 kts | 134° |
| 2026-05-07 19:07 | 48.66723 | 44.27965 | 6895 ft | 281 kts | 134° |
| 2026-05-07 19:08 | 48.65265 | 44.29983 | 7742 ft | 285 kts | 135° |
| 2026-05-07 19:08 | 48.63799 | 44.31970 | 8568 ft | 288 kts | 135° |
| 2026-05-07 19:08 | 48.62303 | 44.33972 | 9371 ft | 291 kts | 135° |
| 2026-05-07 19:08 | 48.60775 | 44.35999 | 10175 ft | 295 kts | 135° |
| 2026-05-07 19:09 | 48.59211 | 44.38063 | 10744 ft | 306 kts | 135° |
| 2026-05-07 19:09 | 48.57569 | 44.40231 | 11122 ft | 324 kts | 135° |
| 2026-05-07 19:09 | 48.55827 | 44.42524 | 11488 ft | 341 kts | 135° |
| 2026-05-07 19:09 | 48.54019 | 44.44895 | 12085 ft | 349 kts | 136° |
| 2026-05-07 19:10 | 48.52189 | 44.47285 | 12807 ft | 351 kts | 136° |
| 2026-05-07 19:10 | 48.50333 | 44.49701 | 13527 ft | 355 kts | 135° |
| 2026-05-07 19:10 | 48.48472 | 44.52124 | 14219 ft | 358 kts | 136° |
| 2026-05-07 19:10 | 48.46587 | 44.54577 | 14889 ft | 362 kts | 135° |
| 2026-05-07 19:11 | 48.44671 | 44.57066 | 15545 ft | 366 kts | 135° |
| 2026-05-07 19:11 | 48.42749 | 44.59566 | 16204 ft | 370 kts | 136° |
| 2026-05-07 19:11 | 48.40809 | 44.62087 | 16836 ft | 372 kts | 136° |
| 2026-05-07 19:11 | 48.38831 | 44.64653 | 17452 ft | 376 kts | 135° |
| 2026-05-07 19:12 | 48.36839 | 44.67233 | 18054 ft | 380 kts | 136° |
| 2026-05-07 19:12 | 48.34828 | 44.69834 | 18634 ft | 383 kts | 136° |
| 2026-05-07 19:12 | 48.32805 | 44.72451 | 19197 ft | 387 kts | 136° |
| 2026-05-07 19:12 | 48.30740 | 44.75119 | 19779 ft | 391 kts | 136° |
| 2026-05-07 19:13 | 48.28695 | 44.77760 | 20330 ft | 393 kts | 136° |
| 2026-05-07 19:13 | 48.26602 | 44.80462 | 20862 ft | 397 kts | 136° |
| 2026-05-07 19:13 | 48.24481 | 44.83189 | 21392 ft | 401 kts | 136° |
| 2026-05-07 19:13 | 48.22369 | 44.85903 | 21916 ft | 404 kts | 136° |
| 2026-05-07 19:14 | 48.20244 | 44.88633 | 22427 ft | 408 kts | 136° |
| 2026-05-07 19:14 | 48.18065 | 44.91429 | 22927 ft | 411 kts | 136° |
| 2026-05-07 19:14 | 48.15902 | 44.94203 | 23406 ft | 415 kts | 136° |
| 2026-05-07 19:14 | 48.13714 | 44.97006 | 23871 ft | 418 kts | 136° |
| 2026-05-07 19:15 | 48.11502 | 44.99834 | 24322 ft | 422 kts | 136° |
| 2026-05-07 19:15 | 48.09266 | 45.02691 | 24769 ft | 425 kts | 136° |
| 2026-05-07 19:15 | 48.06996 | 45.05592 | 25233 ft | 428 kts | 136° |
| 2026-05-07 19:15 | 48.04745 | 45.08461 | 25672 ft | 431 kts | 136° |
| 2026-05-07 19:16 | 48.02478 | 45.11448 | 26075 ft | 433 kts | 133° |
| 2026-05-07 19:16 | 48.00346 | 45.14583 | 26457 ft | 435 kts | 130° |
| 2026-05-07 19:16 | 47.98214 | 45.17836 | 26951 ft | 436 kts | 130° |
| 2026-05-07 19:16 | 47.96123 | 45.21025 | 27454 ft | 436 kts | 130° |
| 2026-05-07 19:17 | 47.94001 | 45.24258 | 27856 ft | 438 kts | 130° |
| 2026-05-07 19:17 | 47.91872 | 45.27502 | 27946 ft | 441 kts | 130° |
| 2026-05-07 19:17 | 47.89718 | 45.30781 | 27950 ft | 441 kts | 130° |
| 2026-05-07 19:17 | 47.87570 | 45.34042 | 27950 ft | 442 kts | 130° |
| 2026-05-07 19:18 | 47.85416 | 45.37308 | 27951 ft | 442 kts | 130° |
| 2026-05-07 19:18 | 47.83269 | 45.40558 | 27950 ft | 442 kts | 130° |
| 2026-05-07 19:18 | 47.81101 | 45.43833 | 27951 ft | 442 kts | 130° |
| 2026-05-07 19:18 | 47.78967 | 45.47057 | 27950 ft | 442 kts | 130° |
| 2026-05-07 19:19 | 47.76802 | 45.50323 | 27949 ft | 442 kts | 130° |
| 2026-05-07 19:19 | 47.74636 | 45.53584 | 27949 ft | 441 kts | 130° |
| 2026-05-07 19:19 | 47.72494 | 45.56805 | 27948 ft | 442 kts | 130° |
| 2026-05-07 19:19 | 47.70320 | 45.60071 | 27949 ft | 441 kts | 130° |
| 2026-05-07 19:20 | 47.68169 | 45.63296 | 27948 ft | 442 kts | 130° |
| 2026-05-07 19:20 | 47.66016 | 45.66524 | 27948 ft | 442 kts | 131° |
| 2026-05-07 19:20 | 47.63862 | 45.69752 | 27949 ft | 441 kts | 131° |
| 2026-05-07 19:20 | 47.61804 | 45.72830 | 27946 ft | 442 kts | 131° |
| 2026-05-07 19:21 | 47.59607 | 45.76106 | 27948 ft | 442 kts | 131° |
| 2026-05-07 19:21 | 47.57464 | 45.79303 | 27945 ft | 441 kts | 131° |
| 2026-05-07 19:21 | 47.55290 | 45.82539 | 27945 ft | 442 kts | 131° |
| 2026-05-07 19:21 | 47.53114 | 45.85775 | 27943 ft | 441 kts | 131° |
| 2026-05-07 19:22 | 47.50933 | 45.89016 | 27943 ft | 441 kts | 131° |
| 2026-05-07 19:22 | 47.48788 | 45.92198 | 27939 ft | 441 kts | 131° |
| 2026-05-07 19:22 | 47.46628 | 45.95398 | 27937 ft | 441 kts | 131° |
| 2026-05-07 19:22 | 47.44470 | 45.98595 | 27940 ft | 441 kts | 131° |
| 2026-05-07 19:23 | 47.42294 | 46.01810 | 27939 ft | 441 kts | 131° |
| 2026-05-07 19:23 | 47.40151 | 46.04973 | 27938 ft | 440 kts | 131° |
| 2026-05-07 19:23 | 47.37991 | 46.08161 | 27937 ft | 440 kts | 131° |
| 2026-05-07 19:23 | 47.35819 | 46.11358 | 27937 ft | 440 kts | 131° |
| 2026-05-07 19:24 | 47.33658 | 46.14534 | 27938 ft | 440 kts | 131° |
| 2026-05-07 19:24 | 47.31491 | 46.17720 | 27936 ft | 440 kts | 131° |
| 2026-05-07 19:24 | 47.29345 | 46.20868 | 27934 ft | 440 kts | 131° |
| 2026-05-07 19:24 | 47.27177 | 46.24045 | 27934 ft | 440 kts | 131° |
| 2026-05-07 19:25 | 47.25000 | 46.27234 | 27933 ft | 440 kts | 131° |
| 2026-05-07 19:25 | 47.22857 | 46.30364 | 27933 ft | 440 kts | 131° |
| 2026-05-07 19:25 | 47.20676 | 46.33550 | 27931 ft | 439 kts | 131° |
| 2026-05-07 19:25 | 47.18533 | 46.36676 | 27931 ft | 439 kts | 132° |
| 2026-05-07 19:26 | 47.16363 | 46.39835 | 27932 ft | 439 kts | 132° |
| 2026-05-07 19:26 | 47.14173 | 46.43021 | 27930 ft | 439 kts | 132° |
| 2026-05-07 19:26 | 47.12053 | 46.46101 | 27931 ft | 438 kts | 132° |
| 2026-05-07 19:26 | 47.09839 | 46.49313 | 27929 ft | 438 kts | 132° |
| 2026-05-07 19:27 | 47.07691 | 46.52425 | 27926 ft | 439 kts | 132° |
| 2026-05-07 19:27 | 47.05515 | 46.55576 | 27927 ft | 438 kts | 132° |
| 2026-05-07 19:27 | 47.03368 | 46.58680 | 27928 ft | 439 kts | 132° |
| 2026-05-07 19:27 | 47.01185 | 46.61835 | 27732 ft | 441 kts | 132° |
| 2026-05-07 19:28 | 46.99027 | 46.64950 | 27144 ft | 439 kts | 132° |
| 2026-05-07 19:28 | 46.96823 | 46.68124 | 26382 ft | 440 kts | 133° |
| 2026-05-07 19:28 | 46.94661 | 46.71238 | 25570 ft | 443 kts | 133° |
| 2026-05-07 19:28 | 46.92479 | 46.74372 | 24951 ft | 439 kts | 133° |
| 2026-05-07 19:29 | 46.90284 | 46.77520 | 24366 ft | 436 kts | 133° |
| 2026-05-07 19:29 | 46.88150 | 46.80578 | 23785 ft | 432 kts | 133° |
| 2026-05-07 19:29 | 46.86004 | 46.83649 | 23209 ft | 429 kts | 133° |
| 2026-05-07 19:29 | 46.83884 | 46.86683 | 22622 ft | 427 kts | 133° |
| 2026-05-07 19:30 | 46.81781 | 46.89691 | 22039 ft | 424 kts | 133° |
| 2026-05-07 19:30 | 46.79678 | 46.92693 | 21456 ft | 422 kts | 133° |
| 2026-05-07 19:30 | 46.77578 | 46.95687 | 20869 ft | 419 kts | 133° |
| 2026-05-07 19:30 | 46.75519 | 46.98621 | 20283 ft | 417 kts | 133° |
| 2026-05-07 19:31 | 46.73458 | 47.01554 | 19692 ft | 414 kts | 133° |
| 2026-05-07 19:31 | 46.71419 | 47.04463 | 19106 ft | 411 kts | 132° |
| 2026-05-07 19:31 | 46.69505 | 47.07537 | 18499 ft | 407 kts | 127° |
| 2026-05-07 19:31 | 46.67823 | 47.10778 | 17974 ft | 401 kts | 122° |
| 2026-05-07 19:32 | 46.66275 | 47.14120 | 17479 ft | 396 kts | 121° |
| 2026-05-07 19:32 | 46.64758 | 47.17444 | 16991 ft | 391 kts | 121° |
| 2026-05-07 19:32 | 46.63281 | 47.20684 | 16514 ft | 387 kts | 121° |
| 2026-05-07 19:32 | 46.61786 | 47.23954 | 16021 ft | 384 kts | 121° |
| 2026-05-07 19:33 | 46.60312 | 47.27169 | 15537 ft | 381 kts | 121° |
| 2026-05-07 19:33 | 46.58893 | 47.30261 | 15073 ft | 376 kts | 121° |
| 2026-05-07 19:33 | 46.57420 | 47.33461 | 14590 ft | 373 kts | 121° |
| 2026-05-07 19:33 | 46.55978 | 47.36588 | 14115 ft | 370 kts | 121° |
| 2026-05-07 19:34 | 46.54561 | 47.39659 | 13642 ft | 367 kts | 121° |
| 2026-05-07 19:34 | 46.53139 | 47.42734 | 13170 ft | 365 kts | 121° |
| 2026-05-07 19:34 | 46.51744 | 47.45748 | 12704 ft | 363 kts | 121° |
| 2026-05-07 19:34 | 46.50336 | 47.48781 | 12239 ft | 361 kts | 121° |
| 2026-05-07 19:35 | 46.48940 | 47.51788 | 11772 ft | 359 kts | 120° |
| 2026-05-07 19:35 | 46.47564 | 47.54778 | 11304 ft | 357 kts | 121° |
| 2026-05-07 19:35 | 46.46185 | 47.57756 | 10839 ft | 356 kts | 121° |
| 2026-05-07 19:35 | 46.44802 | 47.60743 | 10432 ft | 352 kts | 121° |
| 2026-05-07 19:36 | 46.43462 | 47.63640 | 10258 ft | 339 kts | 122° |
| 2026-05-07 19:36 | 46.42176 | 47.66376 | 10143 ft | 327 kts | 121° |
| 2026-05-07 19:36 | 46.40925 | 47.69059 | 10017 ft | 314 kts | 122° |
| 2026-05-07 19:36 | 46.39715 | 47.71646 | 9837 ft | 306 kts | 121° |
| 2026-05-07 19:37 | 46.38535 | 47.74154 | 9461 ft | 304 kts | 121° |
| 2026-05-07 19:37 | 46.37356 | 47.76710 | 9100 ft | 302 kts | 122° |
| 2026-05-07 19:37 | 46.36189 | 47.79178 | 8773 ft | 300 kts | 122° |
| 2026-05-07 19:37 | 46.35006 | 47.81675 | 8421 ft | 298 kts | 120° |
| 2026-05-07 19:38 | 46.33858 | 47.84153 | 8061 ft | 296 kts | 121° |
| 2026-05-07 19:38 | 46.32712 | 47.86625 | 7737 ft | 294 kts | 122° |
| 2026-05-07 19:38 | 46.31567 | 47.89034 | 7398 ft | 292 kts | 121° |
| 2026-05-07 19:38 | 46.30433 | 47.91459 | 7061 ft | 290 kts | 122° |
| 2026-05-07 19:39 | 46.29294 | 47.93864 | 6740 ft | 288 kts | 123° |
| 2026-05-07 19:39 | 46.28178 | 47.96249 | 6417 ft | 287 kts | 122° |
| 2026-05-07 19:39 | 46.27061 | 47.98622 | 6091 ft | 286 kts | 123° |
| 2026-05-07 19:39 | 46.25946 | 48.01018 | 5754 ft | 284 kts | 124° |
| 2026-05-07 19:40 | 46.24816 | 48.03345 | 5434 ft | 283 kts | 122° |
| 2026-05-07 19:40 | 46.23704 | 48.05665 | 5106 ft | 282 kts | 122° |
| 2026-05-07 19:40 | 46.22588 | 48.08064 | 4925 ft | 287 kts | 122° |
| 2026-05-07 19:40 | 46.21470 | 48.10458 | 4921 ft | 290 kts | 123° |
| 2026-05-07 19:41 | 46.20332 | 48.12815 | 4803 ft | 285 kts | 122° |
| 2026-05-07 19:41 | 46.19212 | 48.15167 | 4451 ft | 284 kts | 120° |
| 2026-05-07 19:41 | 46.18369 | 48.17701 | 4076 ft | 280 kts | 101° |
| 2026-05-07 19:41 | 46.18037 | 48.20417 | 3713 ft | 276 kts | 92° |
| 2026-05-07 19:42 | 46.17841 | 48.23148 | 3399 ft | 273 kts | 92° |
| 2026-05-07 19:42 | 46.17658 | 48.25845 | 3162 ft | 268 kts | 90° |
| 2026-05-07 19:42 | 46.17945 | 48.28388 | 2911 ft | 251 kts | 56° |
| 2026-05-07 19:42 | 46.19130 | 48.30030 | 2768 ft | 227 kts | 15° |
| 2026-05-07 19:43 | 46.20598 | 48.30285 | 2686 ft | 209 kts | 354° |
| 2026-05-07 19:43 | 46.22015 | 48.30193 | 2571 ft | 201 kts | 356° |
| 2026-05-07 19:43 | 46.23401 | 48.30207 | 2433 ft | 193 kts | 358° |
| 2026-05-07 19:43 | 46.24663 | 48.29936 | 2228 ft | 183 kts | 330° |
| 2026-05-07 19:44 | 46.25485 | 48.28690 | 2030 ft | 164 kts | 301° |
| 2026-05-07 19:44 | 46.25879 | 48.27270 | 1967 ft | 143 kts | 288° |
| 2026-05-07 19:44 | 46.26110 | 48.25859 | 2015 ft | 147 kts | 284° |
| 2026-05-07 19:44 | 46.26300 | 48.24404 | 2001 ft | 148 kts | 284° |
| 2026-05-07 19:45 | 46.26465 | 48.22930 | 1991 ft | 148 kts | 283° |
| 2026-05-07 19:45 | 46.26609 | 48.21442 | 1978 ft | 149 kts | 282° |
| 2026-05-07 19:45 | 46.26740 | 48.19971 | 1987 ft | 149 kts | 282° |
| 2026-05-07 19:45 | 46.26861 | 48.18476 | 1971 ft | 150 kts | 281° |
| 2026-05-07 19:46 | 46.26982 | 48.16984 | 1813 ft | 149 kts | 281° |
| 2026-05-07 19:46 | 46.27098 | 48.15550 | 1595 ft | 135 kts | 281° |
| 2026-05-07 19:46 | 46.27206 | 48.14243 | 1416 ft | 131 kts | 281° |
| 2026-05-07 19:46 | 46.27311 | 48.12933 | 1251 ft | 130 kts | 280° |
| 2026-05-07 19:47 | 46.27414 | 48.11636 | 1097 ft | 130 kts | 279° |
| 2026-05-07 19:47 | 46.27518 | 48.10345 | 928 ft | 130 kts | 281° |
| 2026-05-07 19:47 | 46.27626 | 48.09055 | 766 ft | 130 kts | 279° |
| 2026-05-07 19:47 | 46.27731 | 48.07753 | 583 ft | 130 kts | 280° |
| 2026-05-07 19:48 | 46.27834 | 48.06466 | 405 ft | 129 kts | 281° |
| 2026-05-07 19:48 | 46.27951 | 48.05185 | 241 ft | 128 kts | 279° |
| 2026-05-07 19:48 | 46.28061 | 48.03915 | 79 ft | 128 kts | 279° |
| 2026-05-07 19:48 | 46.28157 | 48.02638 | -49 ft | 123 kts | 277° |
| 2026-05-07 19:49 | 46.28232 | 48.01730 | -53 ft | 49 kts | 277° |
| 2026-05-07 19:49 | 46.28247 | 48.01557 | -53 ft | 7 kts | 277° |
| 2026-05-07 19:49 | 46.28256 | 48.01461 | -53 ft | 11 kts | 277° |
| 2026-05-07 19:49 | 46.28267 | 48.01322 | -53 ft | 15 kts | 277° |
| 2026-05-07 19:50 | 46.28282 | 48.01146 | -53 ft | 19 kts | 277° |
| 2026-05-07 19:50 | 46.28301 | 48.00926 | -53 ft | 25 kts | 277° |
| 2026-05-07 19:50 | 46.28325 | 48.00640 | -53 ft | 29 kts | 277° |
| 2026-05-07 19:50 | 46.28347 | 48.00364 | -53 ft | 26 kts | 276° |
| 2026-05-07 19:51 | 46.28365 | 48.00146 | -53 ft | 16 kts | 276° |
| 2026-05-07 19:51 | 46.28422 | 48.00056 | -53 ft | 12 kts | 358° |
| 2026-05-07 19:51 | 46.28485 | 48.00064 | -53 ft | 0 kts | 7° |
| 2026-05-07 19:51 | 46.28487 | 48.00064 | -53 ft | 0 kts | 6° |
| 2026-05-07 19:53 | 46.28518 | 48.00070 | -53 ft | 6 kts | 7° |
| 2026-05-07 19:53 | 46.28566 | 48.00078 | -53 ft | 6 kts | 7° |
| 2026-05-07 19:54 | 46.28604 | 48.00085 | -53 ft | 5 kts | 9° |
| 2026-05-07 19:54 | 46.28626 | 48.00081 | -53 ft | 2 kts | 293° |
| 2026-05-07 19:54 | 46.28613 | 48.00049 | -53 ft | 4 kts | 226° |
| 2026-05-07 19:54 | 46.28604 | 48.00003 | -53 ft | 5 kts | 295° |
| 2026-05-07 19:55 | 46.28637 | 47.99992 | -53 ft | 4 kts | 20° |
| 2026-05-07 19:55 | 46.28645 | 48.00001 | -53 ft | 0 kts | 45° |
| 2026-05-07 19:58 | 46.28645 | 48.00002 | -54 ft | 0 kts | 44° |
| 2026-05-07 19:58 | 46.28646 | 48.00002 | -54 ft | 0 kts | 44° |
| 2026-05-07 19:59 | 46.28645 | 48.00002 | -54 ft | 0 kts | 43° |